sensor_id;sensor_type;location;lat;lon;timestamp;temperature;humidity
19966;DHT22;10144;50.874;4.762;2023-01-16T00:01:58;5.10;99.90
19966;DHT22;10144;50.874;4.762;2023-01-16T00:04:24;5.10;99.90
19966;DHT22;10144;50.874;4.762;2023-01-16T00:06:51;5.10;99.90
19966;DHT22;10144;50.874;4.762;2023-01-16T00:09:20;5.10;99.90
19966;DHT22;10144;50.874;4.762;2023-01-16T00:11:56;5.10;99.90
19966;DHT22;10144;50.874;4.762;2023-01-16T00:14:28;5.20;99.90
19966;DHT22;10144;50.874;4.762;2023-01-16T00:16:57;5.10;99.90
19966;DHT22;10144;50.874;4.762;2023-01-16T00:19:27;5.00;99.90
19966;DHT22;10144;50.874;4.762;2023-01-16T00:21:53;5.00;99.90
19966;DHT22;10144;50.874;4.762;2023-01-16T00:24:21;4.90;99.90
19966;DHT22;10144;50.874;4.762;2023-01-16T00:26:50;5.00;99.90
19966;DHT22;10144;50.874;4.762;2023-01-16T00:29:39;4.90;99.90
19966;DHT22;10144;50.874;4.762;2023-01-16T00:32:07;4.90;99.90
19966;DHT22;10144;50.874;4.762;2023-01-16T00:34:33;4.90;99.90
19966;DHT22;10144;50.874;4.762;2023-01-16T00:36:59;4.90;99.90
19966;DHT22;10144;50.874;4.762;2023-01-16T00:39:28;5.00;99.90
19966;DHT22;10144;50.874;4.762;2023-01-16T00:41:55;5.00;99.90
19966;DHT22;10144;50.874;4.762;2023-01-16T00:44:20;4.90;99.90
19966;DHT22;10144;50.874;4.762;2023-01-16T00:46:52;5.00;99.90
19966;DHT22;10144;50.874;4.762;2023-01-16T00:49:19;5.00;99.90
19966;DHT22;10144;50.874;4.762;2023-01-16T00:51:45;5.00;99.90
19966;DHT22;10144;50.874;4.762;2023-01-16T00:54:13;5.00;99.90
19966;DHT22;10144;50.874;4.762;2023-01-16T00:56:40;5.00;99.90
19966;DHT22;10144;50.874;4.762;2023-01-16T00:59:10;5.10;99.90
19966;DHT22;10144;50.874;4.762;2023-01-16T01:01:37;5.10;99.90
19966;DHT22;10144;50.874;4.762;2023-01-16T01:04:06;5.00;99.90
19966;DHT22;10144;50.874;4.762;2023-01-16T01:06:33;5.00;99.90
19966;DHT22;10144;50.874;4.762;2023-01-16T01:08:59;5.10;99.90
19966;DHT22;10144;50.874;4.762;2023-01-16T01:11:27;5.00;99.90
19966;DHT22;10144;50.874;4.762;2023-01-16T01:13:53;5.10;99.90
19966;DHT22;10144;50.874;4.762;2023-01-16T01:16:51;5.10;99.90
19966;DHT22;10144;50.874;4.762;2023-01-16T01:19:20;5.10;99.90
19966;DHT22;10144;50.874;4.762;2023-01-16T01:21:46;5.10;99.90
19966;DHT22;10144;50.874;4.762;2023-01-16T01:24:13;5.10;99.90
19966;DHT22;10144;50.874;4.762;2023-01-16T01:26:42;5.20;99.90
19966;DHT22;10144;50.874;4.762;2023-01-16T01:29:11;5.30;99.90
19966;DHT22;10144;50.874;4.762;2023-01-16T01:31:42;5.40;99.90
19966;DHT22;10144;50.874;4.762;2023-01-16T01:34:11;5.40;99.90
19966;DHT22;10144;50.874;4.762;2023-01-16T01:36:40;5.50;99.90
19966;DHT22;10144;50.874;4.762;2023-01-16T01:39:06;5.50;99.90
19966;DHT22;10144;50.874;4.762;2023-01-16T01:41:34;5.60;99.90
19966;DHT22;10144;50.874;4.762;2023-01-16T01:44:39;5.50;99.90
19966;DHT22;10144;50.874;4.762;2023-01-16T01:46:51;5.40;99.90
19966;DHT22;10144;50.874;4.762;2023-01-16T01:51:46;5.50;99.90
19966;DHT22;10144;50.874;4.762;2023-01-16T01:54:34;5.50;99.90
19966;DHT22;10144;50.874;4.762;2023-01-16T01:57:11;5.50;99.90
19966;DHT22;10144;50.874;4.762;2023-01-16T01:59:43;5.50;99.90
19966;DHT22;10144;50.874;4.762;2023-01-16T02:02:28;5.40;99.90
19966;DHT22;10144;50.874;4.762;2023-01-16T02:05:06;5.50;99.90
19966;DHT22;10144;50.874;4.762;2023-01-16T02:07:36;5.60;99.90
19966;DHT22;10144;50.874;4.762;2023-01-16T02:10:27;5.70;99.90
19966;DHT22;10144;50.874;4.762;2023-01-16T02:12:57;5.80;99.90
19966;DHT22;10144;50.874;4.762;2023-01-16T02:15:29;5.80;99.90
19966;DHT22;10144;50.874;4.762;2023-01-16T02:17:58;5.80;99.90
19966;DHT22;10144;50.874;4.762;2023-01-16T02:21:10;5.90;99.90
19966;DHT22;10144;50.874;4.762;2023-01-16T02:26:51;5.90;99.90
19966;DHT22;10144;50.874;4.762;2023-01-16T02:32:56;5.80;99.90
19966;DHT22;10144;50.874;4.762;2023-01-16T02:35:47;5.70;99.90
19966;DHT22;10144;50.874;4.762;2023-01-16T02:41:49;5.70;99.90
19966;DHT22;10144;50.874;4.762;2023-01-16T02:49:43;5.80;99.90
19966;DHT22;10144;50.874;4.762;2023-01-16T02:55:37;5.80;99.90
19966;DHT22;10144;50.874;4.762;2023-01-16T02:58:06;5.90;99.90
19966;DHT22;10144;50.874;4.762;2023-01-16T03:00:36;5.90;99.90
19966;DHT22;10144;50.874;4.762;2023-01-16T03:03:02;5.90;99.90
19966;DHT22;10144;50.874;4.762;2023-01-16T03:05:36;5.90;99.90
19966;DHT22;10144;50.874;4.762;2023-01-16T03:08:30;5.90;99.90
19966;DHT22;10144;50.874;4.762;2023-01-16T03:14:04;6.00;99.90
19966;DHT22;10144;50.874;4.762;2023-01-16T03:16:48;5.90;99.90
19966;DHT22;10144;50.874;4.762;2023-01-16T03:20:27;5.90;99.90
19966;DHT22;10144;50.874;4.762;2023-01-16T03:25:38;6.10;99.90
19966;DHT22;10144;50.874;4.762;2023-01-16T03:31:06;6.00;99.90
19966;DHT22;10144;50.874;4.762;2023-01-16T03:33:47;5.90;99.90
19966;DHT22;10144;50.874;4.762;2023-01-16T03:36:32;5.90;99.90
19966;DHT22;10144;50.874;4.762;2023-01-16T03:39:03;5.90;99.90
19966;DHT22;10144;50.874;4.762;2023-01-16T03:41:31;5.90;99.90
19966;DHT22;10144;50.874;4.762;2023-01-16T03:44:11;5.90;99.90
19966;DHT22;10144;50.874;4.762;2023-01-16T03:46:47;6.00;99.90
19966;DHT22;10144;50.874;4.762;2023-01-16T03:49:17;6.00;99.90
19966;DHT22;10144;50.874;4.762;2023-01-16T03:51:50;6.00;99.90
19966;DHT22;10144;50.874;4.762;2023-01-16T03:54:49;6.10;99.90
19966;DHT22;10144;50.874;4.762;2023-01-16T03:57:24;6.10;99.90
19966;DHT22;10144;50.874;4.762;2023-01-16T03:59:53;6.10;99.90
19966;DHT22;10144;50.874;4.762;2023-01-16T04:02:36;6.10;99.90
19966;DHT22;10144;50.874;4.762;2023-01-16T04:08:11;6.10;99.90
19966;DHT22;10144;50.874;4.762;2023-01-16T04:10:43;6.10;99.90
19966;DHT22;10144;50.874;4.762;2023-01-16T04:13:15;6.10;99.90
19966;DHT22;10144;50.874;4.762;2023-01-16T04:15:49;6.10;99.90
19966;DHT22;10144;50.874;4.762;2023-01-16T04:18:19;6.10;99.90
19966;DHT22;10144;50.874;4.762;2023-01-16T04:20:56;6.10;99.90
19966;DHT22;10144;50.874;4.762;2023-01-16T04:23:24;6.10;99.90
19966;DHT22;10144;50.874;4.762;2023-01-16T04:25:52;6.10;99.90
19966;DHT22;10144;50.874;4.762;2023-01-16T04:28:19;6.10;99.90
19966;DHT22;10144;50.874;4.762;2023-01-16T04:30:56;6.10;99.90
19966;DHT22;10144;50.874;4.762;2023-01-16T04:33:22;6.00;99.90
19966;DHT22;10144;50.874;4.762;2023-01-16T04:35:51;6.00;99.90
19966;DHT22;10144;50.874;4.762;2023-01-16T04:38:20;6.10;99.90
19966;DHT22;10144;50.874;4.762;2023-01-16T04:40:53;6.10;99.90
19966;DHT22;10144;50.874;4.762;2023-01-16T04:43:19;6.20;99.90
19966;DHT22;10144;50.874;4.762;2023-01-16T04:45:46;6.20;99.90
19966;DHT22;10144;50.874;4.762;2023-01-16T04:48:14;5.90;99.90
19966;DHT22;10144;50.874;4.762;2023-01-16T04:50:43;5.90;99.90
19966;DHT22;10144;50.874;4.762;2023-01-16T04:53:12;5.90;99.90
19966;DHT22;10144;50.874;4.762;2023-01-16T04:55:39;5.90;99.90
19966;DHT22;10144;50.874;4.762;2023-01-16T04:58:05;5.90;99.90
19966;DHT22;10144;50.874;4.762;2023-01-16T05:00:37;5.90;99.90
19966;DHT22;10144;50.874;4.762;2023-01-16T05:03:03;5.90;99.90
19966;DHT22;10144;50.874;4.762;2023-01-16T05:05:37;5.90;99.90
19966;DHT22;10144;50.874;4.762;2023-01-16T05:08:07;5.80;99.90
19966;DHT22;10144;50.874;4.762;2023-01-16T05:10:45;5.70;99.90
19966;DHT22;10144;50.874;4.762;2023-01-16T05:13:24;5.60;99.90
19966;DHT22;10144;50.874;4.762;2023-01-16T05:15:52;5.50;99.90
19966;DHT22;10144;50.874;4.762;2023-01-16T05:18:22;5.50;99.90
19966;DHT22;10144;50.874;4.762;2023-01-16T05:20:51;5.40;99.90
19966;DHT22;10144;50.874;4.762;2023-01-16T05:23:18;5.50;99.90
19966;DHT22;10144;50.874;4.762;2023-01-16T05:25:46;5.50;99.90
19966;DHT22;10144;50.874;4.762;2023-01-16T05:28:14;5.40;99.90
19966;DHT22;10144;50.874;4.762;2023-01-16T05:30:42;5.40;99.90
19966;DHT22;10144;50.874;4.762;2023-01-16T05:33:10;5.40;99.90
19966;DHT22;10144;50.874;4.762;2023-01-16T05:35:37;5.40;99.90
19966;DHT22;10144;50.874;4.762;2023-01-16T05:38:09;5.30;99.90
19966;DHT22;10144;50.874;4.762;2023-01-16T05:41:09;5.30;99.90
19966;DHT22;10144;50.874;4.762;2023-01-16T05:43:44;5.20;99.90
19966;DHT22;10144;50.874;4.762;2023-01-16T05:46:14;5.20;99.90
19966;DHT22;10144;50.874;4.762;2023-01-16T05:48:44;5.20;99.90
19966;DHT22;10144;50.874;4.762;2023-01-16T05:51:10;5.20;99.90
19966;DHT22;10144;50.874;4.762;2023-01-16T05:53:40;5.20;99.90
19966;DHT22;10144;50.874;4.762;2023-01-16T05:56:08;5.20;99.90
19966;DHT22;10144;50.874;4.762;2023-01-16T05:58:37;5.20;99.90
19966;DHT22;10144;50.874;4.762;2023-01-16T06:01:11;5.20;99.90
19966;DHT22;10144;50.874;4.762;2023-01-16T06:03:40;5.10;99.90
19966;DHT22;10144;50.874;4.762;2023-01-16T06:06:06;5.10;99.90
19966;DHT22;10144;50.874;4.762;2023-01-16T06:08:32;5.10;99.90
19966;DHT22;10144;50.874;4.762;2023-01-16T06:11:05;5.00;99.90
19966;DHT22;10144;50.874;4.762;2023-01-16T06:13:34;5.00;99.90
19966;DHT22;10144;50.874;4.762;2023-01-16T06:16:02;5.00;99.90
19966;DHT22;10144;50.874;4.762;2023-01-16T06:18:54;5.00;99.90
19966;DHT22;10144;50.874;4.762;2023-01-16T06:21:23;5.00;99.90
19966;DHT22;10144;50.874;4.762;2023-01-16T06:26:43;5.00;99.90
19966;DHT22;10144;50.874;4.762;2023-01-16T06:29:09;5.00;99.90
19966;DHT22;10144;50.874;4.762;2023-01-16T07:45:31;4.60;99.90
19966;DHT22;10144;50.874;4.762;2023-01-16T07:56:39;4.40;99.90
19966;DHT22;10144;50.874;4.762;2023-01-16T08:02:29;4.50;99.90
19966;DHT22;10144;50.874;4.762;2023-01-16T08:08:18;4.40;99.90
19966;DHT22;10144;50.874;4.762;2023-01-16T08:14:07;4.50;99.90
19966;DHT22;10144;50.874;4.762;2023-01-16T08:19:55;4.60;99.90
19966;DHT22;10144;50.874;4.762;2023-01-16T08:25:43;4.70;99.90
19966;DHT22;10144;50.874;4.762;2023-01-16T08:31:31;4.70;99.90
19966;DHT22;10144;50.874;4.762;2023-01-16T08:37:20;4.80;99.90
19966;DHT22;10144;50.874;4.762;2023-01-16T08:43:09;4.60;99.90
19966;DHT22;10144;50.874;4.762;2023-01-16T08:49:17;4.90;99.90
19966;DHT22;10144;50.874;4.762;2023-01-16T08:55:27;5.30;99.90
19966;DHT22;10144;50.874;4.762;2023-01-16T08:58:00;5.60;99.90
19966;DHT22;10144;50.874;4.762;2023-01-16T09:03:49;5.80;99.90
19966;DHT22;10144;50.874;4.762;2023-01-16T09:09:46;5.60;99.90
19966;DHT22;10144;50.874;4.762;2023-01-16T09:15:38;6.00;99.90
19966;DHT22;10144;50.874;4.762;2023-01-16T09:21:54;7.70;99.90
19966;DHT22;10144;50.874;4.762;2023-01-16T09:28:24;8.90;99.90
19966;DHT22;10144;50.874;4.762;2023-01-16T09:34:12;7.70;99.90
19966;DHT22;10144;50.874;4.762;2023-01-16T09:40:00;9.00;99.90
19966;DHT22;10144;50.874;4.762;2023-01-16T09:45:49;11.00;99.90
19966;DHT22;10144;50.874;4.762;2023-01-16T09:51:42;10.70;99.90
19966;DHT22;10144;50.874;4.762;2023-01-16T09:57:52;8.50;99.90
19966;DHT22;10144;50.874;4.762;2023-01-16T10:04:20;7.30;99.90
19966;DHT22;10144;50.874;4.762;2023-01-16T10:16:34;6.40;99.90
19966;DHT22;10144;50.874;4.762;2023-01-16T10:22:37;6.50;99.90
19966;DHT22;10144;50.874;4.762;2023-01-16T10:38:48;7.20;99.90
19966;DHT22;10144;50.874;4.762;2023-01-16T10:51:25;7.20;99.90
19966;DHT22;10144;50.874;4.762;2023-01-16T10:57:18;7.10;99.90
19966;DHT22;10144;50.874;4.762;2023-01-16T11:09:23;7.20;99.90
19966;DHT22;10144;50.874;4.762;2023-01-16T11:15:15;7.20;99.90
19966;DHT22;10144;50.874;4.762;2023-01-16T11:18:00;7.30;99.90
19966;DHT22;10144;50.874;4.762;2023-01-16T11:20:44;7.30;99.90
19966;DHT22;10144;50.874;4.762;2023-01-16T11:23:18;7.50;99.90
19966;DHT22;10144;50.874;4.762;2023-01-16T11:25:45;7.60;99.90
19966;DHT22;10144;50.874;4.762;2023-01-16T11:28:18;7.80;99.90
19966;DHT22;10144;50.874;4.762;2023-01-16T11:30:47;7.90;99.90
19966;DHT22;10144;50.874;4.762;2023-01-16T11:33:22;8.00;99.90
19966;DHT22;10144;50.874;4.762;2023-01-16T11:35:55;8.20;99.90
19966;DHT22;10144;50.874;4.762;2023-01-16T11:38:23;8.10;99.90
19966;DHT22;10144;50.874;4.762;2023-01-16T11:40:50;8.00;99.90
19966;DHT22;10144;50.874;4.762;2023-01-16T11:43:21;7.80;99.90
19966;DHT22;10144;50.874;4.762;2023-01-16T11:46:56;7.60;99.90
19966;DHT22;10144;50.874;4.762;2023-01-16T11:49:15;7.50;99.90
19966;DHT22;10144;50.874;4.762;2023-01-16T11:51:41;7.50;99.90
19966;DHT22;10144;50.874;4.762;2023-01-16T11:54:14;7.50;99.90
19966;DHT22;10144;50.874;4.762;2023-01-16T12:14:08;6.60;99.90
19966;DHT22;10144;50.874;4.762;2023-01-16T12:19:56;6.50;99.90
19966;DHT22;10144;50.874;4.762;2023-01-16T12:22:40;6.40;99.90
19966;DHT22;10144;50.874;4.762;2023-01-16T12:28:22;6.30;99.90
19966;DHT22;10144;50.874;4.762;2023-01-16T12:56:10;6.50;99.90
19966;DHT22;10144;50.874;4.762;2023-01-16T12:58:45;6.40;99.90
19966;DHT22;10144;50.874;4.762;2023-01-16T13:01:17;6.40;99.90
19966;DHT22;10144;50.874;4.762;2023-01-16T13:04:09;6.50;99.90
19966;DHT22;10144;50.874;4.762;2023-01-16T13:06:55;6.50;99.90
19966;DHT22;10144;50.874;4.762;2023-01-16T13:12:25;6.50;99.90
19966;DHT22;10144;50.874;4.762;2023-01-16T13:15:15;6.50;99.90
19966;DHT22;10144;50.874;4.762;2023-01-16T13:17:50;6.50;99.90
19966;DHT22;10144;50.874;4.762;2023-01-16T13:20:21;6.40;99.90
19966;DHT22;10144;50.874;4.762;2023-01-16T13:22:56;6.40;99.90
19966;DHT22;10144;50.874;4.762;2023-01-16T13:25:29;6.30;99.90
19966;DHT22;10144;50.874;4.762;2023-01-16T13:28:06;6.20;99.90
19966;DHT22;10144;50.874;4.762;2023-01-16T13:30:36;6.20;99.90
19966;DHT22;10144;50.874;4.762;2023-01-16T13:33:07;6.30;99.90
19966;DHT22;10144;50.874;4.762;2023-01-16T13:38:40;6.40;99.90
19966;DHT22;10144;50.874;4.762;2023-01-16T13:41:23;6.50;99.90
19966;DHT22;10144;50.874;4.762;2023-01-16T13:46:53;6.70;99.90
19966;DHT22;10144;50.874;4.762;2023-01-16T13:49:23;6.80;99.90
19966;DHT22;10144;50.874;4.762;2023-01-16T13:51:51;6.90;99.90
19966;DHT22;10144;50.874;4.762;2023-01-16T13:54:24;7.10;99.90
19966;DHT22;10144;50.874;4.762;2023-01-16T13:57:02;7.20;99.90
19966;DHT22;10144;50.874;4.762;2023-01-16T13:59:49;7.20;99.90
19966;DHT22;10144;50.874;4.762;2023-01-16T14:10:45;7.30;99.90
19966;DHT22;10144;50.874;4.762;2023-01-16T14:18:38;7.30;99.90
19966;DHT22;10144;50.874;4.762;2023-01-16T14:21:17;7.20;99.90
19966;DHT22;10144;50.874;4.762;2023-01-16T14:23:46;7.10;99.90
19966;DHT22;10144;50.874;4.762;2023-01-16T14:29:35;7.00;99.90
19966;DHT22;10144;50.874;4.762;2023-01-16T14:32:17;7.10;99.90
19966;DHT22;10144;50.874;4.762;2023-01-16T14:34:50;7.30;99.90
19966;DHT22;10144;50.874;4.762;2023-01-16T14:37:22;7.30;99.90
19966;DHT22;10144;50.874;4.762;2023-01-16T14:42:35;7.30;99.90
19966;DHT22;10144;50.874;4.762;2023-01-16T14:45:28;7.40;99.90
19966;DHT22;10144;50.874;4.762;2023-01-16T14:53:56;7.60;99.90
19966;DHT22;10144;50.874;4.762;2023-01-16T14:56:42;7.50;99.90
19966;DHT22;10144;50.874;4.762;2023-01-16T14:59:22;7.60;99.90
19966;DHT22;10144;50.874;4.762;2023-01-16T15:02:02;7.70;99.90
19966;DHT22;10144;50.874;4.762;2023-01-16T15:04:55;7.70;99.90
19966;DHT22;10144;50.874;4.762;2023-01-16T15:07:41;7.50;99.90
19966;DHT22;10144;50.874;4.762;2023-01-16T15:10:29;7.30;99.90
19966;DHT22;10144;50.874;4.762;2023-01-16T15:18:23;7.00;99.90
19966;DHT22;10144;50.874;4.762;2023-01-16T15:21:15;7.20;99.90
19966;DHT22;10144;50.874;4.762;2023-01-16T15:24:00;7.20;99.90
19966;DHT22;10144;50.874;4.762;2023-01-16T15:32:14;6.80;99.90
19966;DHT22;10144;50.874;4.762;2023-01-16T15:34:44;6.60;99.90
19966;DHT22;10144;50.874;4.762;2023-01-16T15:37:22;6.40;99.90
19966;DHT22;10144;50.874;4.762;2023-01-16T15:39:48;6.30;99.90
19966;DHT22;10144;50.874;4.762;2023-01-16T15:42:16;6.20;99.90
19966;DHT22;10144;50.874;4.762;2023-01-16T15:51:00;6.10;99.90
19966;DHT22;10144;50.874;4.762;2023-01-16T15:53:38;6.00;99.90
19966;DHT22;10144;50.874;4.762;2023-01-16T15:56:23;6.20;99.90
19966;DHT22;10144;50.874;4.762;2023-01-16T15:58:50;6.20;99.90
19966;DHT22;10144;50.874;4.762;2023-01-16T16:01:25;6.20;99.90
19966;DHT22;10144;50.874;4.762;2023-01-16T16:03:51;6.30;99.90
19966;DHT22;10144;50.874;4.762;2023-01-16T16:06:18;6.40;99.90
19966;DHT22;10144;50.874;4.762;2023-01-16T16:08:50;6.20;99.90
19966;DHT22;10144;50.874;4.762;2023-01-16T16:11:21;6.00;99.90
19966;DHT22;10144;50.874;4.762;2023-01-16T16:14:35;6.00;99.90
19966;DHT22;10144;50.874;4.762;2023-01-16T16:17:31;5.80;99.90
19966;DHT22;10144;50.874;4.762;2023-01-16T16:20:31;5.40;99.90
19966;DHT22;10144;50.874;4.762;2023-01-16T16:23:10;5.00;99.90
19966;DHT22;10144;50.874;4.762;2023-01-16T16:30:45;4.40;99.90
19966;DHT22;10144;50.874;4.762;2023-01-16T16:33:18;4.20;99.90
19966;DHT22;10144;50.874;4.762;2023-01-16T16:35:49;4.10;99.90
19966;DHT22;10144;50.874;4.762;2023-01-16T16:41:45;4.00;99.90
19966;DHT22;10144;50.874;4.762;2023-01-16T16:44:38;4.00;99.90
19966;DHT22;10144;50.874;4.762;2023-01-16T16:47:22;4.00;99.90
19966;DHT22;10144;50.874;4.762;2023-01-16T16:49:48;4.10;99.90
19966;DHT22;10144;50.874;4.762;2023-01-16T16:52:31;4.10;99.90
19966;DHT22;10144;50.874;4.762;2023-01-16T16:55:00;4.10;99.90
19966;DHT22;10144;50.874;4.762;2023-01-16T16:57:30;4.10;99.90
19966;DHT22;10144;50.874;4.762;2023-01-16T16:59:59;4.10;99.90
19966;DHT22;10144;50.874;4.762;2023-01-16T17:02:24;4.00;99.90
19966;DHT22;10144;50.874;4.762;2023-01-16T17:04:54;3.90;99.90
19966;DHT22;10144;50.874;4.762;2023-01-16T17:07:19;3.90;99.90
19966;DHT22;10144;50.874;4.762;2023-01-16T17:09:46;3.80;99.90
19966;DHT22;10144;50.874;4.762;2023-01-16T17:12:17;3.90;99.90
19966;DHT22;10144;50.874;4.762;2023-01-16T17:14:45;3.90;99.90
19966;DHT22;10144;50.874;4.762;2023-01-16T17:17:17;3.90;99.90
19966;DHT22;10144;50.874;4.762;2023-01-16T17:19:43;3.90;99.90
19966;DHT22;10144;50.874;4.762;2023-01-16T17:22:10;4.00;99.90
19966;DHT22;10144;50.874;4.762;2023-01-16T17:24:36;3.90;99.90
19966;DHT22;10144;50.874;4.762;2023-01-16T17:27:02;3.90;99.90
19966;DHT22;10144;50.874;4.762;2023-01-16T17:29:33;4.00;99.90
19966;DHT22;10144;50.874;4.762;2023-01-16T17:31:59;4.00;99.90
19966;DHT22;10144;50.874;4.762;2023-01-16T17:34:30;3.90;99.90
19966;DHT22;10144;50.874;4.762;2023-01-16T17:36:57;3.90;99.90
19966;DHT22;10144;50.874;4.762;2023-01-16T17:39:24;4.00;99.90
19966;DHT22;10144;50.874;4.762;2023-01-16T17:41:51;4.00;99.90
19966;DHT22;10144;50.874;4.762;2023-01-16T17:44:19;4.00;99.90
19966;DHT22;10144;50.874;4.762;2023-01-16T17:47:04;4.00;99.90
19966;DHT22;10144;50.874;4.762;2023-01-16T17:49:30;4.00;99.90
19966;DHT22;10144;50.874;4.762;2023-01-16T17:51:56;4.00;99.90
19966;DHT22;10144;50.874;4.762;2023-01-16T17:54:21;4.00;99.90
19966;DHT22;10144;50.874;4.762;2023-01-16T17:57:05;4.10;99.90
19966;DHT22;10144;50.874;4.762;2023-01-16T17:59:31;4.00;99.90
19966;DHT22;10144;50.874;4.762;2023-01-16T18:01:58;4.10;99.90
19966;DHT22;10144;50.874;4.762;2023-01-16T18:04:24;4.10;99.90
19966;DHT22;10144;50.874;4.762;2023-01-16T18:06:49;4.10;99.90
19966;DHT22;10144;50.874;4.762;2023-01-16T18:09:16;4.20;99.90
19966;DHT22;10144;50.874;4.762;2023-01-16T18:11:43;4.10;99.90
19966;DHT22;10144;50.874;4.762;2023-01-16T18:14:27;4.10;99.90
19966;DHT22;10144;50.874;4.762;2023-01-16T18:17:14;4.10;99.90
19966;DHT22;10144;50.874;4.762;2023-01-16T18:19:50;4.00;99.90
19966;DHT22;10144;50.874;4.762;2023-01-16T18:22:17;3.90;99.90
19966;DHT22;10144;50.874;4.762;2023-01-16T18:24:44;3.80;99.90
19966;DHT22;10144;50.874;4.762;2023-01-16T18:27:14;3.80;99.90
19966;DHT22;10144;50.874;4.762;2023-01-16T18:29:42;3.70;99.90
19966;DHT22;10144;50.874;4.762;2023-01-16T18:32:08;3.70;99.90
19966;DHT22;10144;50.874;4.762;2023-01-16T18:35:02;3.60;99.90
19966;DHT22;10144;50.874;4.762;2023-01-16T18:39:55;3.50;99.90
19966;DHT22;10144;50.874;4.762;2023-01-16T18:42:40;3.40;99.90
19966;DHT22;10144;50.874;4.762;2023-01-16T18:45:25;3.50;99.90
19966;DHT22;10144;50.874;4.762;2023-01-16T18:48:12;3.50;99.90
19966;DHT22;10144;50.874;4.762;2023-01-16T18:50:57;3.50;99.90
19966;DHT22;10144;50.874;4.762;2023-01-16T18:53:44;3.40;99.90
19966;DHT22;10144;50.874;4.762;2023-01-16T18:56:38;3.30;99.90
19966;DHT22;10144;50.874;4.762;2023-01-16T18:59:26;3.30;99.90
19966;DHT22;10144;50.874;4.762;2023-01-16T19:04:44;3.00;99.90
19966;DHT22;10144;50.874;4.762;2023-01-16T19:07:20;3.00;99.90
19966;DHT22;10144;50.874;4.762;2023-01-16T19:09:53;3.00;99.90
19966;DHT22;10144;50.874;4.762;2023-01-16T19:12:21;3.10;99.90
19966;DHT22;10144;50.874;4.762;2023-01-16T19:14:48;3.10;99.90
19966;DHT22;10144;50.874;4.762;2023-01-16T19:17:14;3.10;99.90
19966;DHT22;10144;50.874;4.762;2023-01-16T19:19:40;3.10;99.90
19966;DHT22;10144;50.874;4.762;2023-01-16T19:22:06;3.10;99.90
19966;DHT22;10144;50.874;4.762;2023-01-16T19:24:31;3.10;99.90
19966;DHT22;10144;50.874;4.762;2023-01-16T19:26:58;3.10;99.90
19966;DHT22;10144;50.874;4.762;2023-01-16T19:29:25;3.20;99.90
19966;DHT22;10144;50.874;4.762;2023-01-16T19:31:51;3.20;99.90
19966;DHT22;10144;50.874;4.762;2023-01-16T19:34:18;3.40;99.90
19966;DHT22;10144;50.874;4.762;2023-01-16T19:36:54;3.50;99.90
19966;DHT22;10144;50.874;4.762;2023-01-16T19:39:20;3.50;99.90
19966;DHT22;10144;50.874;4.762;2023-01-16T19:41:46;3.50;99.90
19966;DHT22;10144;50.874;4.762;2023-01-16T19:44:30;3.60;99.90
19966;DHT22;10144;50.874;4.762;2023-01-16T19:47:15;3.60;99.90
19966;DHT22;10144;50.874;4.762;2023-01-16T19:49:41;3.60;99.90
19966;DHT22;10144;50.874;4.762;2023-01-16T19:52:10;3.70;99.90
19966;DHT22;10144;50.874;4.762;2023-01-16T19:54:37;3.80;99.90
19966;DHT22;10144;50.874;4.762;2023-01-16T19:57:04;3.80;99.90
19966;DHT22;10144;50.874;4.762;2023-01-16T19:59:30;3.90;99.90
19966;DHT22;10144;50.874;4.762;2023-01-16T20:01:57;3.90;99.90
19966;DHT22;10144;50.874;4.762;2023-01-16T20:04:29;3.90;99.90
19966;DHT22;10144;50.874;4.762;2023-01-16T20:06:55;3.90;99.90
19966;DHT22;10144;50.874;4.762;2023-01-16T20:09:21;3.90;99.90
19966;DHT22;10144;50.874;4.762;2023-01-16T20:11:47;3.90;99.90
19966;DHT22;10144;50.874;4.762;2023-01-16T20:14:33;3.90;99.90
19966;DHT22;10144;50.874;4.762;2023-01-16T20:16:59;3.90;99.90
19966;DHT22;10144;50.874;4.762;2023-01-16T20:19:25;3.90;99.90
19966;DHT22;10144;50.874;4.762;2023-01-16T20:21:55;3.80;99.90
19966;DHT22;10144;50.874;4.762;2023-01-16T20:24:21;3.70;99.90
19966;DHT22;10144;50.874;4.762;2023-01-16T20:26:49;3.70;99.90
19966;DHT22;10144;50.874;4.762;2023-01-16T20:29:17;3.70;99.90
19966;DHT22;10144;50.874;4.762;2023-01-16T20:31:43;3.70;99.90
19966;DHT22;10144;50.874;4.762;2023-01-16T20:34:09;3.80;99.90
19966;DHT22;10144;50.874;4.762;2023-01-16T20:36:35;3.70;99.90
19966;DHT22;10144;50.874;4.762;2023-01-16T20:39:01;3.60;99.90
19966;DHT22;10144;50.874;4.762;2023-01-16T20:41:27;3.50;99.90
19966;DHT22;10144;50.874;4.762;2023-01-16T20:44:16;3.40;99.90
19966;DHT22;10144;50.874;4.762;2023-01-16T20:47:01;3.30;99.90
19966;DHT22;10144;50.874;4.762;2023-01-16T20:49:28;3.30;99.90
19966;DHT22;10144;50.874;4.762;2023-01-16T20:51:54;3.30;99.90
19966;DHT22;10144;50.874;4.762;2023-01-16T20:54:21;3.30;99.90
19966;DHT22;10144;50.874;4.762;2023-01-16T20:56:48;3.30;99.90
19966;DHT22;10144;50.874;4.762;2023-01-16T20:59:14;3.30;99.90
19966;DHT22;10144;50.874;4.762;2023-01-16T21:01:40;3.20;99.90
19966;DHT22;10144;50.874;4.762;2023-01-16T21:04:06;3.20;99.90
19966;DHT22;10144;50.874;4.762;2023-01-16T21:06:32;3.20;99.90
19966;DHT22;10144;50.874;4.762;2023-01-16T21:08:58;3.10;99.90
19966;DHT22;10144;50.874;4.762;2023-01-16T21:11:24;3.10;99.90
19966;DHT22;10144;50.874;4.762;2023-01-16T21:14:09;3.10;99.90
19966;DHT22;10144;50.874;4.762;2023-01-16T21:16:53;3.10;99.90
19966;DHT22;10144;50.874;4.762;2023-01-16T21:19:37;3.00;99.90
19966;DHT22;10144;50.874;4.762;2023-01-16T21:22:30;3.00;99.90
19966;DHT22;10144;50.874;4.762;2023-01-16T21:24:58;2.90;99.90
19966;DHT22;10144;50.874;4.762;2023-01-16T21:27:29;2.90;99.90
19966;DHT22;10144;50.874;4.762;2023-01-16T21:29:57;3.00;99.90
19966;DHT22;10144;50.874;4.762;2023-01-16T21:32:23;3.10;99.90
19966;DHT22;10144;50.874;4.762;2023-01-16T21:34:50;3.20;99.90
19966;DHT22;10144;50.874;4.762;2023-01-16T21:37:19;3.20;99.90
19966;DHT22;10144;50.874;4.762;2023-01-16T21:39:45;3.20;99.90
19966;DHT22;10144;50.874;4.762;2023-01-16T21:42:11;3.20;99.90
19966;DHT22;10144;50.874;4.762;2023-01-16T21:44:55;3.20;99.90
19966;DHT22;10144;50.874;4.762;2023-01-16T21:47:39;3.20;99.90
19966;DHT22;10144;50.874;4.762;2023-01-16T21:50:06;3.20;99.90
19966;DHT22;10144;50.874;4.762;2023-01-16T21:52:33;3.10;99.90
19966;DHT22;10144;50.874;4.762;2023-01-16T21:54:58;3.00;99.90
19966;DHT22;10144;50.874;4.762;2023-01-16T21:57:24;3.00;99.90
19966;DHT22;10144;50.874;4.762;2023-01-16T21:59:50;2.80;99.90
19966;DHT22;10144;50.874;4.762;2023-01-16T22:02:16;2.80;99.90
19966;DHT22;10144;50.874;4.762;2023-01-16T22:04:42;2.70;99.90
19966;DHT22;10144;50.874;4.762;2023-01-16T22:07:08;2.70;99.90
19966;DHT22;10144;50.874;4.762;2023-01-16T22:09:33;2.70;99.90
19966;DHT22;10144;50.874;4.762;2023-01-16T22:11:59;2.60;99.90
19966;DHT22;10144;50.874;4.762;2023-01-16T22:14:43;2.60;99.90
19966;DHT22;10144;50.874;4.762;2023-01-16T22:17:27;2.60;99.90
19966;DHT22;10144;50.874;4.762;2023-01-16T22:20:14;2.60;99.90